sensor_id;sensor_type;location;lat;lon;timestamp;temperature;humidity
62583;DHT22;48641;51.676;5.808;2024-03-25T00:02:00;14.70;61.80
62583;DHT22;48641;51.676;5.808;2024-03-25T00:04:26;14.70;61.80
62583;DHT22;48641;51.676;5.808;2024-03-25T00:06:52;14.70;61.80
62583;DHT22;48641;51.676;5.808;2024-03-25T00:09:18;14.70;61.90
62583;DHT22;48641;51.676;5.808;2024-03-25T00:11:44;14.70;61.90
62583;DHT22;48641;51.676;5.808;2024-03-25T00:14:09;14.80;61.90
62583;DHT22;48641;51.676;5.808;2024-03-25T00:16:35;14.80;62.00
62583;DHT22;48641;51.676;5.808;2024-03-25T00:19:01;14.70;61.90
62583;DHT22;48641;51.676;5.808;2024-03-25T00:21:27;14.70;61.90
62583;DHT22;48641;51.676;5.808;2024-03-25T00:23:52;14.70;62.00
62583;DHT22;48641;51.676;5.808;2024-03-25T00:26:18;14.70;62.00
62583;DHT22;48641;51.676;5.808;2024-03-25T00:28:44;14.70;61.80
62583;DHT22;48641;51.676;5.808;2024-03-25T00:31:09;14.70;62.00
62583;DHT22;48641;51.676;5.808;2024-03-25T00:33:35;14.80;62.10
62583;DHT22;48641;51.676;5.808;2024-03-25T00:36:01;14.70;62.10
62583;DHT22;48641;51.676;5.808;2024-03-25T00:38:26;14.70;62.10
62583;DHT22;48641;51.676;5.808;2024-03-25T00:40:52;14.70;62.10
62583;DHT22;48641;51.676;5.808;2024-03-25T00:43:18;14.70;62.20
62583;DHT22;48641;51.676;5.808;2024-03-25T00:45:45;14.70;62.20
62583;DHT22;48641;51.676;5.808;2024-03-25T00:48:12;14.70;62.20
62583;DHT22;48641;51.676;5.808;2024-03-25T00:50:37;14.70;62.20
62583;DHT22;48641;51.676;5.808;2024-03-25T00:53:03;14.70;62.20
62583;DHT22;48641;51.676;5.808;2024-03-25T00:55:29;14.70;62.30
62583;DHT22;48641;51.676;5.808;2024-03-25T00:57:54;14.70;62.30
62583;DHT22;48641;51.676;5.808;2024-03-25T01:00:20;14.70;62.30
62583;DHT22;48641;51.676;5.808;2024-03-25T01:02:46;14.70;62.40
62583;DHT22;48641;51.676;5.808;2024-03-25T01:05:12;14.70;62.30
62583;DHT22;48641;51.676;5.808;2024-03-25T01:07:38;14.70;62.40
62583;DHT22;48641;51.676;5.808;2024-03-25T01:10:04;14.70;62.40
62583;DHT22;48641;51.676;5.808;2024-03-25T01:12:31;14.70;62.40
62583;DHT22;48641;51.676;5.808;2024-03-25T01:14:57;14.70;62.40
62583;DHT22;48641;51.676;5.808;2024-03-25T01:17:22;14.70;62.40
62583;DHT22;48641;51.676;5.808;2024-03-25T01:19:48;14.70;62.40
62583;DHT22;48641;51.676;5.808;2024-03-25T01:22:14;14.70;62.50
62583;DHT22;48641;51.676;5.808;2024-03-25T01:24:39;14.70;62.50
62583;DHT22;48641;51.676;5.808;2024-03-25T01:27:05;14.70;62.50
62583;DHT22;48641;51.676;5.808;2024-03-25T01:29:31;14.60;61.70
62583;DHT22;48641;51.676;5.808;2024-03-25T01:31:58;14.60;62.50
62583;DHT22;48641;51.676;5.808;2024-03-25T01:34:25;14.60;62.50
62583;DHT22;48641;51.676;5.808;2024-03-25T01:36:51;14.60;62.60
62583;DHT22;48641;51.676;5.808;2024-03-25T01:39:16;14.60;62.50
62583;DHT22;48641;51.676;5.808;2024-03-25T01:41:42;14.60;62.40
62583;DHT22;48641;51.676;5.808;2024-03-25T01:44:10;14.60;62.50
62583;DHT22;48641;51.676;5.808;2024-03-25T01:46:36;14.60;62.60
62583;DHT22;48641;51.676;5.808;2024-03-25T01:49:03;14.60;62.70
62583;DHT22;48641;51.676;5.808;2024-03-25T01:51:29;14.60;62.70
62583;DHT22;48641;51.676;5.808;2024-03-25T01:53:55;14.60;62.70
62583;DHT22;48641;51.676;5.808;2024-03-25T01:56:23;14.60;62.70
62583;DHT22;48641;51.676;5.808;2024-03-25T01:58:50;14.60;62.70
62583;DHT22;48641;51.676;5.808;2024-03-25T02:01:16;14.60;62.70
62583;DHT22;48641;51.676;5.808;2024-03-25T02:03:43;14.60;62.80
62583;DHT22;48641;51.676;5.808;2024-03-25T02:06:17;14.60;62.70
62583;DHT22;48641;51.676;5.808;2024-03-25T02:08:44;14.60;62.80
62583;DHT22;48641;51.676;5.808;2024-03-25T02:11:10;14.60;62.80
62583;DHT22;48641;51.676;5.808;2024-03-25T02:13:39;14.60;62.80
62583;DHT22;48641;51.676;5.808;2024-03-25T02:16:05;14.60;62.90
62583;DHT22;48641;51.676;5.808;2024-03-25T02:18:30;14.60;62.90
62583;DHT22;48641;51.676;5.808;2024-03-25T02:20:57;14.60;62.90
62583;DHT22;48641;51.676;5.808;2024-03-25T02:23:23;14.60;62.90
62583;DHT22;48641;51.676;5.808;2024-03-25T02:25:55;14.60;62.90
62583;DHT22;48641;51.676;5.808;2024-03-25T02:28:21;14.50;62.90
62583;DHT22;48641;51.676;5.808;2024-03-25T02:30:47;14.50;62.90
62583;DHT22;48641;51.676;5.808;2024-03-25T02:33:12;14.50;63.00
62583;DHT22;48641;51.676;5.808;2024-03-25T02:35:39;14.50;63.00
62583;DHT22;48641;51.676;5.808;2024-03-25T02:38:06;14.50;63.00
62583;DHT22;48641;51.676;5.808;2024-03-25T02:40:32;14.50;63.00
62583;DHT22;48641;51.676;5.808;2024-03-25T02:42:58;14.50;63.00
62583;DHT22;48641;51.676;5.808;2024-03-25T02:45:24;14.50;63.10
62583;DHT22;48641;51.676;5.808;2024-03-25T02:47:50;14.50;63.10
62583;DHT22;48641;51.676;5.808;2024-03-25T02:50:16;14.50;63.10
62583;DHT22;48641;51.676;5.808;2024-03-25T02:52:42;14.50;63.10
62583;DHT22;48641;51.676;5.808;2024-03-25T02:55:08;14.50;63.10
62583;DHT22;48641;51.676;5.808;2024-03-25T02:57:33;14.50;63.10
62583;DHT22;48641;51.676;5.808;2024-03-25T02:59:59;14.50;63.10
62583;DHT22;48641;51.676;5.808;2024-03-25T03:02:25;14.50;63.10
62583;DHT22;48641;51.676;5.808;2024-03-25T03:04:50;14.50;63.30
62583;DHT22;48641;51.676;5.808;2024-03-25T03:07:16;14.50;63.20
62583;DHT22;48641;51.676;5.808;2024-03-25T03:09:42;14.50;63.30
62583;DHT22;48641;51.676;5.808;2024-03-25T03:12:08;14.50;63.30
62583;DHT22;48641;51.676;5.808;2024-03-25T03:14:33;14.50;63.40
62583;DHT22;48641;51.676;5.808;2024-03-25T03:16:59;14.50;63.40
62583;DHT22;48641;51.676;5.808;2024-03-25T03:19:25;14.50;63.60
62583;DHT22;48641;51.676;5.808;2024-03-25T03:21:51;14.50;63.70
62583;DHT22;48641;51.676;5.808;2024-03-25T03:24:17;14.50;63.80
62583;DHT22;48641;51.676;5.808;2024-03-25T03:26:43;14.40;63.80
62583;DHT22;48641;51.676;5.808;2024-03-25T03:29:09;14.50;63.80
62583;DHT22;48641;51.676;5.808;2024-03-25T03:31:36;14.50;63.80
62583;DHT22;48641;51.676;5.808;2024-03-25T03:34:02;14.50;63.80
62583;DHT22;48641;51.676;5.808;2024-03-25T03:36:27;14.40;63.80
62583;DHT22;48641;51.676;5.808;2024-03-25T03:38:53;14.40;63.80
62583;DHT22;48641;51.676;5.808;2024-03-25T03:41:19;14.40;63.80
62583;DHT22;48641;51.676;5.808;2024-03-25T03:43:45;14.40;63.80
62583;DHT22;48641;51.676;5.808;2024-03-25T03:46:11;14.40;63.80
62583;DHT22;48641;51.676;5.808;2024-03-25T03:48:36;14.40;63.80
62583;DHT22;48641;51.676;5.808;2024-03-25T03:51:04;14.40;63.90
62583;DHT22;48641;51.676;5.808;2024-03-25T03:53:29;14.40;63.90
62583;DHT22;48641;51.676;5.808;2024-03-25T03:56:03;14.40;64.00
62583;DHT22;48641;51.676;5.808;2024-03-25T03:58:33;14.40;63.90
62583;DHT22;48641;51.676;5.808;2024-03-25T04:00:59;14.40;63.90
62583;DHT22;48641;51.676;5.808;2024-03-25T04:03:25;14.40;63.90
62583;DHT22;48641;51.676;5.808;2024-03-25T04:05:50;14.40;63.90
62583;DHT22;48641;51.676;5.808;2024-03-25T04:08:16;14.40;63.90
62583;DHT22;48641;51.676;5.808;2024-03-25T04:10:43;14.40;63.90
62583;DHT22;48641;51.676;5.808;2024-03-25T04:13:09;14.40;63.90
62583;DHT22;48641;51.676;5.808;2024-03-25T04:15:36;14.40;63.90
62583;DHT22;48641;51.676;5.808;2024-03-25T04:18:02;14.40;63.90
62583;DHT22;48641;51.676;5.808;2024-03-25T04:20:28;14.40;64.00
62583;DHT22;48641;51.676;5.808;2024-03-25T04:22:54;14.40;64.00
62583;DHT22;48641;51.676;5.808;2024-03-25T04:25:20;14.40;63.90
62583;DHT22;48641;51.676;5.808;2024-03-25T04:27:46;14.30;63.90
62583;DHT22;48641;51.676;5.808;2024-03-25T04:30:11;14.30;63.90
62583;DHT22;48641;51.676;5.808;2024-03-25T04:32:38;14.30;63.90
62583;DHT22;48641;51.676;5.808;2024-03-25T04:35:05;14.30;63.90
62583;DHT22;48641;51.676;5.808;2024-03-25T04:37:32;14.30;63.90
62583;DHT22;48641;51.676;5.808;2024-03-25T04:39:57;14.30;64.00
62583;DHT22;48641;51.676;5.808;2024-03-25T04:42:23;14.30;64.00
62583;DHT22;48641;51.676;5.808;2024-03-25T04:44:52;14.30;64.00
62583;DHT22;48641;51.676;5.808;2024-03-25T04:47:18;14.30;64.00
62583;DHT22;48641;51.676;5.808;2024-03-25T04:49:44;14.30;64.00
62583;DHT22;48641;51.676;5.808;2024-03-25T04:52:11;14.30;64.00
62583;DHT22;48641;51.676;5.808;2024-03-25T04:54:38;14.30;64.10
62583;DHT22;48641;51.676;5.808;2024-03-25T04:57:04;14.30;64.00
62583;DHT22;48641;51.676;5.808;2024-03-25T04:59:31;14.30;64.00
62583;DHT22;48641;51.676;5.808;2024-03-25T05:01:57;14.30;64.00
62583;DHT22;48641;51.676;5.808;2024-03-25T05:04:23;14.30;64.00
62583;DHT22;48641;51.676;5.808;2024-03-25T05:06:50;14.30;64.00
62583;DHT22;48641;51.676;5.808;2024-03-25T05:09:15;14.30;64.00
62583;DHT22;48641;51.676;5.808;2024-03-25T05:11:42;14.30;64.00
62583;DHT22;48641;51.676;5.808;2024-03-25T05:14:07;14.30;63.90
62583;DHT22;48641;51.676;5.808;2024-03-25T05:16:33;14.30;63.90
62583;DHT22;48641;51.676;5.808;2024-03-25T05:18:58;14.30;63.90
62583;DHT22;48641;51.676;5.808;2024-03-25T05:21:24;14.30;63.90
62583;DHT22;48641;51.676;5.808;2024-03-25T05:23:49;14.30;63.90
62583;DHT22;48641;51.676;5.808;2024-03-25T05:26:15;14.40;64.00
62583;DHT22;48641;51.676;5.808;2024-03-25T05:28:40;14.40;64.00
62583;DHT22;48641;51.676;5.808;2024-03-25T05:31:09;14.40;64.10
62583;DHT22;48641;51.676;5.808;2024-03-25T05:33:35;14.40;64.10
62583;DHT22;48641;51.676;5.808;2024-03-25T05:36:01;14.40;64.10
62583;DHT22;48641;51.676;5.808;2024-03-25T05:38:27;14.40;64.10
62583;DHT22;48641;51.676;5.808;2024-03-25T05:40:53;14.50;64.20
62583;DHT22;48641;51.676;5.808;2024-03-25T05:43:19;14.50;64.20
62583;DHT22;48641;51.676;5.808;2024-03-25T05:45:55;14.50;64.20
62583;DHT22;48641;51.676;5.808;2024-03-25T05:48:21;14.50;64.00
62583;DHT22;48641;51.676;5.808;2024-03-25T05:51:03;14.50;64.00
62583;DHT22;48641;51.676;5.808;2024-03-25T05:53:31;14.60;64.00
62583;DHT22;48641;51.676;5.808;2024-03-25T05:55:56;14.60;64.00
62583;DHT22;48641;51.676;5.808;2024-03-25T05:58:24;14.60;64.10
62583;DHT22;48641;51.676;5.808;2024-03-25T06:00:50;14.60;64.20
62583;DHT22;48641;51.676;5.808;2024-03-25T06:03:16;14.60;64.20
62583;DHT22;48641;51.676;5.808;2024-03-25T06:05:44;14.60;64.20
62583;DHT22;48641;51.676;5.808;2024-03-25T06:08:11;14.60;64.30
62583;DHT22;48641;51.676;5.808;2024-03-25T06:10:52;14.60;63.80
62583;DHT22;48641;51.676;5.808;2024-03-25T06:13:19;14.60;62.90
62583;DHT22;48641;51.676;5.808;2024-03-25T06:15:44;14.60;62.20
62583;DHT22;48641;51.676;5.808;2024-03-25T06:18:11;14.70;61.50
62583;DHT22;48641;51.676;5.808;2024-03-25T06:20:36;14.70;61.10
62583;DHT22;48641;51.676;5.808;2024-03-25T06:23:02;14.60;60.50
62583;DHT22;48641;51.676;5.808;2024-03-25T06:25:28;14.60;60.00
62583;DHT22;48641;51.676;5.808;2024-03-25T06:27:54;14.60;59.70
62583;DHT22;48641;51.676;5.808;2024-03-25T06:30:20;14.60;59.20
62583;DHT22;48641;51.676;5.808;2024-03-25T06:33:04;14.60;58.80
62583;DHT22;48641;51.676;5.808;2024-03-25T06:35:56;14.60;58.60
62583;DHT22;48641;51.676;5.808;2024-03-25T06:38:21;14.60;58.30
62583;DHT22;48641;51.676;5.808;2024-03-25T06:40:47;14.60;58.20
62583;DHT22;48641;51.676;5.808;2024-03-25T06:43:13;14.60;58.10
62583;DHT22;48641;51.676;5.808;2024-03-25T06:45:39;14.60;58.10
62583;DHT22;48641;51.676;5.808;2024-03-25T06:48:05;14.60;58.10
62583;DHT22;48641;51.676;5.808;2024-03-25T06:50:31;14.60;57.90
62583;DHT22;48641;51.676;5.808;2024-03-25T06:52:56;14.60;57.90
62583;DHT22;48641;51.676;5.808;2024-03-25T06:55:22;14.60;57.90
62583;DHT22;48641;51.676;5.808;2024-03-25T06:57:52;14.60;58.00
62583;DHT22;48641;51.676;5.808;2024-03-25T07:00:18;14.70;58.00
62583;DHT22;48641;51.676;5.808;2024-03-25T07:02:47;14.60;57.90
62583;DHT22;48641;51.676;5.808;2024-03-25T07:05:13;14.70;58.00
62583;DHT22;48641;51.676;5.808;2024-03-25T07:07:39;14.70;58.30
62583;DHT22;48641;51.676;5.808;2024-03-25T07:10:05;14.70;58.00
62583;DHT22;48641;51.676;5.808;2024-03-25T07:12:30;14.80;57.50
62583;DHT22;48641;51.676;5.808;2024-03-25T07:14:56;14.80;57.20
62583;DHT22;48641;51.676;5.808;2024-03-25T07:17:21;14.90;57.50
62583;DHT22;48641;51.676;5.808;2024-03-25T07:19:48;14.90;58.70
62583;DHT22;48641;51.676;5.808;2024-03-25T07:22:13;15.00;57.80
62583;DHT22;48641;51.676;5.808;2024-03-25T07:24:39;15.10;57.70
62583;DHT22;48641;51.676;5.808;2024-03-25T07:27:05;15.10;57.20
62583;DHT22;48641;51.676;5.808;2024-03-25T07:29:31;15.20;56.70
62583;DHT22;48641;51.676;5.808;2024-03-25T07:31:56;15.30;56.30
62583;DHT22;48641;51.676;5.808;2024-03-25T07:34:22;15.40;56.00
62583;DHT22;48641;51.676;5.808;2024-03-25T07:36:47;15.40;55.60
62583;DHT22;48641;51.676;5.808;2024-03-25T07:39:14;15.50;55.40
62583;DHT22;48641;51.676;5.808;2024-03-25T07:41:40;15.50;55.10
62583;DHT22;48641;51.676;5.808;2024-03-25T07:44:05;15.60;54.80
62583;DHT22;48641;51.676;5.808;2024-03-25T07:46:31;15.70;54.60
62583;DHT22;48641;51.676;5.808;2024-03-25T07:48:57;15.70;54.10
62583;DHT22;48641;51.676;5.808;2024-03-25T07:51:23;15.80;54.10
62583;DHT22;48641;51.676;5.808;2024-03-25T07:53:48;15.80;53.60
62583;DHT22;48641;51.676;5.808;2024-03-25T07:56:15;15.90;53.50
62583;DHT22;48641;51.676;5.808;2024-03-25T07:58:41;15.90;53.30
62583;DHT22;48641;51.676;5.808;2024-03-25T08:01:07;16.00;53.20
62583;DHT22;48641;51.676;5.808;2024-03-25T08:03:33;16.10;53.10
62583;DHT22;48641;51.676;5.808;2024-03-25T08:05:59;16.10;52.90
62583;DHT22;48641;51.676;5.808;2024-03-25T08:08:24;16.20;52.70
62583;DHT22;48641;51.676;5.808;2024-03-25T08:10:50;16.20;52.30
62583;DHT22;48641;51.676;5.808;2024-03-25T08:13:18;16.30;52.10
62583;DHT22;48641;51.676;5.808;2024-03-25T08:15:45;16.30;52.00
62583;DHT22;48641;51.676;5.808;2024-03-25T08:18:10;16.30;51.90
62583;DHT22;48641;51.676;5.808;2024-03-25T08:20:36;16.40;51.90
62583;DHT22;48641;51.676;5.808;2024-03-25T08:23:02;16.40;51.90
62583;DHT22;48641;51.676;5.808;2024-03-25T08:25:28;16.40;51.90
62583;DHT22;48641;51.676;5.808;2024-03-25T08:27:54;16.50;51.90
62583;DHT22;48641;51.676;5.808;2024-03-25T08:30:19;16.50;51.80
62583;DHT22;48641;51.676;5.808;2024-03-25T08:32:45;16.60;51.80
62583;DHT22;48641;51.676;5.808;2024-03-25T08:35:11;16.60;51.80
62583;DHT22;48641;51.676;5.808;2024-03-25T08:37:36;16.60;51.70
62583;DHT22;48641;51.676;5.808;2024-03-25T08:40:02;16.60;51.70
62583;DHT22;48641;51.676;5.808;2024-03-25T08:42:29;16.60;51.70
62583;DHT22;48641;51.676;5.808;2024-03-25T08:44:55;16.70;51.60
62583;DHT22;48641;51.676;5.808;2024-03-25T08:47:20;16.70;51.70
62583;DHT22;48641;51.676;5.808;2024-03-25T08:49:46;16.70;51.70
62583;DHT22;48641;51.676;5.808;2024-03-25T08:52:12;16.70;51.60
62583;DHT22;48641;51.676;5.808;2024-03-25T08:54:37;16.70;51.70
62583;DHT22;48641;51.676;5.808;2024-03-25T08:57:03;16.70;51.70
62583;DHT22;48641;51.676;5.808;2024-03-25T08:59:29;16.70;51.60
62583;DHT22;48641;51.676;5.808;2024-03-25T09:01:55;16.70;51.60
62583;DHT22;48641;51.676;5.808;2024-03-25T09:04:21;16.70;51.60
62583;DHT22;48641;51.676;5.808;2024-03-25T09:06:46;16.70;51.60
62583;DHT22;48641;51.676;5.808;2024-03-25T09:09:13;16.70;51.60
62583;DHT22;48641;51.676;5.808;2024-03-25T09:11:57;16.70;51.60
62583;DHT22;48641;51.676;5.808;2024-03-25T09:14:22;16.70;51.70
62583;DHT22;48641;51.676;5.808;2024-03-25T09:16:48;16.70;51.70
62583;DHT22;48641;51.676;5.808;2024-03-25T09:19:14;16.70;51.70
62583;DHT22;48641;51.676;5.808;2024-03-25T09:21:39;16.70;51.80
62583;DHT22;48641;51.676;5.808;2024-03-25T09:24:05;16.70;51.80
62583;DHT22;48641;51.676;5.808;2024-03-25T09:26:31;16.70;51.90
62583;DHT22;48641;51.676;5.808;2024-03-25T09:28:56;16.60;51.90
62583;DHT22;48641;51.676;5.808;2024-03-25T09:31:22;16.60;52.00
62583;DHT22;48641;51.676;5.808;2024-03-25T09:33:47;16.60;52.00
62583;DHT22;48641;51.676;5.808;2024-03-25T09:36:13;16.60;52.10
62583;DHT22;48641;51.676;5.808;2024-03-25T09:38:38;16.60;52.00
62583;DHT22;48641;51.676;5.808;2024-03-25T09:41:04;16.60;52.10
62583;DHT22;48641;51.676;5.808;2024-03-25T09:43:43;16.60;52.10
62583;DHT22;48641;51.676;5.808;2024-03-25T09:46:09;16.60;52.10
62583;DHT22;48641;51.676;5.808;2024-03-25T09:48:36;16.60;52.10
62583;DHT22;48641;51.676;5.808;2024-03-25T09:51:02;16.60;52.10
62583;DHT22;48641;51.676;5.808;2024-03-25T09:53:28;16.60;52.10
62583;DHT22;48641;51.676;5.808;2024-03-25T09:55:56;16.60;52.10
62583;DHT22;48641;51.676;5.808;2024-03-25T09:58:22;16.60;52.10
62583;DHT22;48641;51.676;5.808;2024-03-25T10:00:49;16.60;52.10
62583;DHT22;48641;51.676;5.808;2024-03-25T10:03:15;16.60;52.10
62583;DHT22;48641;51.676;5.808;2024-03-25T10:05:41;16.60;52.10
62583;DHT22;48641;51.676;5.808;2024-03-25T10:08:07;16.60;52.10
62583;DHT22;48641;51.676;5.808;2024-03-25T10:10:36;16.60;52.10
62583;DHT22;48641;51.676;5.808;2024-03-25T10:13:03;16.60;52.10
62583;DHT22;48641;51.676;5.808;2024-03-25T10:15:30;16.60;52.10
62583;DHT22;48641;51.676;5.808;2024-03-25T10:17:56;16.60;52.10
62583;DHT22;48641;51.676;5.808;2024-03-25T10:20:21;16.60;52.10
62583;DHT22;48641;51.676;5.808;2024-03-25T10:22:48;16.60;52.10
62583;DHT22;48641;51.676;5.808;2024-03-25T10:27:59;16.60;52.20
62583;DHT22;48641;51.676;5.808;2024-03-25T10:30:26;16.70;52.20
62583;DHT22;48641;51.676;5.808;2024-03-25T10:35:26;16.60;52.30
62583;DHT22;48641;51.676;5.808;2024-03-25T10:38:00;16.70;52.40
62583;DHT22;48641;51.676;5.808;2024-03-25T10:40:30;16.70;52.50
62583;DHT22;48641;51.676;5.808;2024-03-25T10:43:02;16.70;52.60
62583;DHT22;48641;51.676;5.808;2024-03-25T10:45:34;16.70;52.60
62583;DHT22;48641;51.676;5.808;2024-03-25T10:48:04;16.70;52.70
62583;DHT22;48641;51.676;5.808;2024-03-25T10:50:35;16.70;52.80
62583;DHT22;48641;51.676;5.808;2024-03-25T10:53:02;16.70;52.60
62583;DHT22;48641;51.676;5.808;2024-03-25T10:55:30;16.70;52.50
62583;DHT22;48641;51.676;5.808;2024-03-25T10:57:56;16.70;52.60
62583;DHT22;48641;51.676;5.808;2024-03-25T11:00:23;16.70;52.70
62583;DHT22;48641;51.676;5.808;2024-03-25T11:02:49;16.70;52.80
62583;DHT22;48641;51.676;5.808;2024-03-25T11:05:15;16.70;52.70
62583;DHT22;48641;51.676;5.808;2024-03-25T11:07:41;16.70;52.70
62583;DHT22;48641;51.676;5.808;2024-03-25T11:10:08;16.80;52.80
62583;DHT22;48641;51.676;5.808;2024-03-25T11:12:38;16.80;52.80
62583;DHT22;48641;51.676;5.808;2024-03-25T11:15:06;16.80;52.80
62583;DHT22;48641;51.676;5.808;2024-03-25T11:17:35;16.80;52.80
62583;DHT22;48641;51.676;5.808;2024-03-25T11:20:12;16.80;52.80
62583;DHT22;48641;51.676;5.808;2024-03-25T11:22:51;16.80;52.80
62583;DHT22;48641;51.676;5.808;2024-03-25T11:25:17;16.80;52.80
62583;DHT22;48641;51.676;5.808;2024-03-25T11:27:44;16.80;52.80
62583;DHT22;48641;51.676;5.808;2024-03-25T11:30:13;16.80;53.00
62583;DHT22;48641;51.676;5.808;2024-03-25T11:32:51;16.80;53.00
62583;DHT22;48641;51.676;5.808;2024-03-25T11:35:16;16.80;53.00
62583;DHT22;48641;51.676;5.808;2024-03-25T11:37:43;16.80;52.90
62583;DHT22;48641;51.676;5.808;2024-03-25T11:40:09;16.80;52.70
62583;DHT22;48641;51.676;5.808;2024-03-25T11:42:38;16.80;52.50
62583;DHT22;48641;51.676;5.808;2024-03-25T11:45:05;16.80;52.50
62583;DHT22;48641;51.676;5.808;2024-03-25T11:47:31;16.90;52.50
62583;DHT22;48641;51.676;5.808;2024-03-25T11:49:57;16.90;52.50
62583;DHT22;48641;51.676;5.808;2024-03-25T11:52:22;16.90;52.50
62583;DHT22;48641;51.676;5.808;2024-03-25T11:54:55;16.90;52.50
62583;DHT22;48641;51.676;5.808;2024-03-25T11:57:21;16.90;52.60
62583;DHT22;48641;51.676;5.808;2024-03-25T11:59:47;17.00;52.60
62583;DHT22;48641;51.676;5.808;2024-03-25T12:02:15;17.00;52.20
62583;DHT22;48641;51.676;5.808;2024-03-25T12:04:44;17.00;52.00
62583;DHT22;48641;51.676;5.808;2024-03-25T12:07:13;17.00;52.10
62583;DHT22;48641;51.676;5.808;2024-03-25T12:09:39;17.00;52.20
62583;DHT22;48641;51.676;5.808;2024-03-25T12:12:24;16.90;52.40
62583;DHT22;48641;51.676;5.808;2024-03-25T12:14:50;16.90;52.40
62583;DHT22;48641;51.676;5.808;2024-03-25T12:17:16;16.90;52.40
62583;DHT22;48641;51.676;5.808;2024-03-25T12:19:42;17.00;52.40
62583;DHT22;48641;51.676;5.808;2024-03-25T12:22:08;17.00;52.20
62583;DHT22;48641;51.676;5.808;2024-03-25T12:24:34;17.00;51.80
62583;DHT22;48641;51.676;5.808;2024-03-25T12:27:00;17.00;51.60
62583;DHT22;48641;51.676;5.808;2024-03-25T12:29:26;17.00;51.40
62583;DHT22;48641;51.676;5.808;2024-03-25T12:31:58;17.00;51.50
62583;DHT22;48641;51.676;5.808;2024-03-25T12:34:26;17.10;51.70
62583;DHT22;48641;51.676;5.808;2024-03-25T12:37:03;17.00;51.80
62583;DHT22;48641;51.676;5.808;2024-03-25T12:39:32;17.10;52.00
62583;DHT22;48641;51.676;5.808;2024-03-25T12:41:58;17.10;51.60
62583;DHT22;48641;51.676;5.808;2024-03-25T12:44:23;17.10;51.20
62583;DHT22;48641;51.676;5.808;2024-03-25T12:46:49;17.10;51.20
62583;DHT22;48641;51.676;5.808;2024-03-25T12:49:16;17.10;51.20
62583;DHT22;48641;51.676;5.808;2024-03-25T12:51:41;17.10;50.50
62583;DHT22;48641;51.676;5.808;2024-03-25T12:54:07;17.10;50.80
62583;DHT22;48641;51.676;5.808;2024-03-25T12:56:32;17.10;51.00
62583;DHT22;48641;51.676;5.808;2024-03-25T12:58:58;17.10;50.60
62583;DHT22;48641;51.676;5.808;2024-03-25T13:01:24;17.10;50.60
62583;DHT22;48641;51.676;5.808;2024-03-25T13:03:49;17.10;50.00
62583;DHT22;48641;51.676;5.808;2024-03-25T13:06:15;17.10;49.70
62583;DHT22;48641;51.676;5.808;2024-03-25T13:08:40;17.10;50.00
62583;DHT22;48641;51.676;5.808;2024-03-25T13:11:06;17.10;49.50
62583;DHT22;48641;51.676;5.808;2024-03-25T13:13:31;17.10;49.60
62583;DHT22;48641;51.676;5.808;2024-03-25T13:15:57;17.20;49.40
62583;DHT22;48641;51.676;5.808;2024-03-25T13:18:22;17.20;49.20
62583;DHT22;48641;51.676;5.808;2024-03-25T13:20:48;17.20;49.30
62583;DHT22;48641;51.676;5.808;2024-03-25T13:23:14;17.20;49.30
62583;DHT22;48641;51.676;5.808;2024-03-25T13:25:39;17.20;49.20
62583;DHT22;48641;51.676;5.808;2024-03-25T13:28:05;17.20;48.10
62583;DHT22;48641;51.676;5.808;2024-03-25T13:30:31;17.20;47.70
62583;DHT22;48641;51.676;5.808;2024-03-25T13:32:57;17.20;48.80
62583;DHT22;48641;51.676;5.808;2024-03-25T13:35:23;17.20;48.90
62583;DHT22;48641;51.676;5.808;2024-03-25T13:37:48;17.20;48.80
62583;DHT22;48641;51.676;5.808;2024-03-25T13:40:14;17.20;48.40
62583;DHT22;48641;51.676;5.808;2024-03-25T13:42:40;17.20;48.20
62583;DHT22;48641;51.676;5.808;2024-03-25T13:45:06;17.20;48.20
62583;DHT22;48641;51.676;5.808;2024-03-25T13:47:31;17.20;48.10
62583;DHT22;48641;51.676;5.808;2024-03-25T13:50:04;17.20;47.10
62583;DHT22;48641;51.676;5.808;2024-03-25T13:52:30;17.20;47.80
62583;DHT22;48641;51.676;5.808;2024-03-25T13:54:56;17.30;47.10
62583;DHT22;48641;51.676;5.808;2024-03-25T13:57:22;17.30;47.80
62583;DHT22;48641;51.676;5.808;2024-03-25T13:59:48;17.30;47.90
62583;DHT22;48641;51.676;5.808;2024-03-25T14:02:13;17.30;48.00
62583;DHT22;48641;51.676;5.808;2024-03-25T14:04:39;17.30;47.30
62583;DHT22;48641;51.676;5.808;2024-03-25T14:07:04;17.30;47.80
62583;DHT22;48641;51.676;5.808;2024-03-25T14:09:30;17.30;47.90
62583;DHT22;48641;51.676;5.808;2024-03-25T14:11:56;17.30;48.70
62583;DHT22;48641;51.676;5.808;2024-03-25T14:14:21;17.30;48.50
62583;DHT22;48641;51.676;5.808;2024-03-25T14:16:47;17.30;48.50
62583;DHT22;48641;51.676;5.808;2024-03-25T14:19:13;17.30;48.80
62583;DHT22;48641;51.676;5.808;2024-03-25T14:21:38;17.40;49.10
62583;DHT22;48641;51.676;5.808;2024-03-25T14:24:05;17.40;48.60
62583;DHT22;48641;51.676;5.808;2024-03-25T14:26:31;17.40;47.80
62583;DHT22;48641;51.676;5.808;2024-03-25T14:28:57;17.40;47.90
62583;DHT22;48641;51.676;5.808;2024-03-25T14:31:22;17.40;48.60
62583;DHT22;48641;51.676;5.808;2024-03-25T14:33:48;17.40;48.30
62583;DHT22;48641;51.676;5.808;2024-03-25T14:36:14;17.40;48.60
62583;DHT22;48641;51.676;5.808;2024-03-25T14:38:39;17.40;48.90
62583;DHT22;48641;51.676;5.808;2024-03-25T14:41:05;17.40;48.60
62583;DHT22;48641;51.676;5.808;2024-03-25T14:43:31;17.40;49.20
62583;DHT22;48641;51.676;5.808;2024-03-25T14:45:56;17.40;49.30
62583;DHT22;48641;51.676;5.808;2024-03-25T14:48:22;17.40;49.70
62583;DHT22;48641;51.676;5.808;2024-03-25T14:50:47;17.40;49.70
62583;DHT22;48641;51.676;5.808;2024-03-25T14:53:13;17.50;49.70
62583;DHT22;48641;51.676;5.808;2024-03-25T14:55:41;17.40;49.70
62583;DHT22;48641;51.676;5.808;2024-03-25T14:58:06;17.50;49.80
62583;DHT22;48641;51.676;5.808;2024-03-25T15:00:32;17.50;50.00
62583;DHT22;48641;51.676;5.808;2024-03-25T15:02:57;17.50;50.10
62583;DHT22;48641;51.676;5.808;2024-03-25T15:05:23;17.50;50.10
62583;DHT22;48641;51.676;5.808;2024-03-25T15:07:48;17.50;50.20
62583;DHT22;48641;51.676;5.808;2024-03-25T15:10:14;17.50;50.10
62583;DHT22;48641;51.676;5.808;2024-03-25T15:12:40;17.50;49.50
62583;DHT22;48641;51.676;5.808;2024-03-25T15:15:06;17.50;49.50
62583;DHT22;48641;51.676;5.808;2024-03-25T15:17:33;17.50;49.70
62583;DHT22;48641;51.676;5.808;2024-03-25T15:19:59;17.50;50.00
62583;DHT22;48641;51.676;5.808;2024-03-25T15:22:25;17.60;50.30
62583;DHT22;48641;51.676;5.808;2024-03-25T15:24:51;17.60;50.30
62583;DHT22;48641;51.676;5.808;2024-03-25T15:27:17;17.60;50.30
62583;DHT22;48641;51.676;5.808;2024-03-25T15:29:43;17.60;49.50
62583;DHT22;48641;51.676;5.808;2024-03-25T15:32:08;17.60;49.40